createdAt,value
2018-08-06T00:02:42.417Z,90.80
2018-08-06T00:05:34.073Z,90.30
2018-08-06T00:08:16.141Z,90.30
2018-08-06T00:11:04.397Z,90.70
2018-08-06T00:13:52.581Z,90.50
2018-08-06T00:16:36.507Z,91.00
2018-08-06T00:19:24.908Z,90.40
2018-08-06T00:22:07.421Z,90.50
2018-08-06T00:24:59.756Z,90.50
2018-08-06T00:27:50.970Z,90.00
2018-08-06T00:30:46.088Z,90.20
2018-08-06T00:33:18.450Z,89.80
2018-08-06T00:35:48.632Z,88.60
2018-08-06T00:38:18.451Z,89.10
2018-08-06T00:40:48.289Z,88.10
2018-08-06T00:43:18.278Z,88.00
2018-08-06T00:45:48.287Z,88.60
2018-08-06T00:48:17.997Z,89.70
2018-08-06T00:50:48.017Z,89.20
2018-08-06T00:55:47.240Z,89.00
2018-08-06T00:58:17.010Z,88.90
2018-08-06T01:00:46.830Z,88.80
2018-08-06T01:03:16.832Z,88.60
2018-08-06T01:05:46.572Z,88.40
2018-08-06T01:10:45.868Z,88.30
2018-08-06T01:13:15.596Z,88.40
2018-08-06T01:15:45.489Z,88.90
2018-08-06T01:18:15.471Z,88.80
2018-08-06T01:20:45.300Z,89.10
2018-08-06T01:23:15.085Z,89.10
2018-08-06T01:25:44.787Z,88.40
2018-08-06T01:28:14.639Z,90.10
2018-08-06T01:30:44.570Z,90.50
2018-08-06T01:35:57.652Z,90.70
2018-08-06T01:38:30.793Z,90.20
2018-08-06T01:41:03.583Z,90.10
2018-08-06T01:43:34.023Z,91.30
2018-08-06T01:46:04.900Z,92.10
2018-08-06T01:48:35.997Z,92.00
2018-08-06T01:51:06.360Z,91.40
2018-08-06T01:58:38.166Z,91.00
2018-08-06T02:01:07.872Z,91.00
2018-08-06T02:03:38.499Z,90.40
2018-08-06T02:06:08.858Z,91.00
2018-08-06T02:08:38.887Z,90.60
2018-08-06T02:11:09.973Z,90.50
2018-08-06T02:13:43.831Z,90.80
2018-08-06T02:16:14.994Z,90.90
2018-08-06T02:18:45.800Z,90.90
2018-08-06T02:21:16.493Z,90.80
2018-08-06T02:26:21.957Z,91.00
2018-08-06T02:31:21.463Z,91.70
2018-08-06T02:34:02.122Z,92.30
2018-08-06T02:36:31.953Z,92.60
2018-08-06T02:39:01.793Z,92.40
2018-08-06T02:41:32.436Z,92.10
2018-08-06T02:46:32.553Z,91.50
2018-08-06T02:49:02.539Z,91.00
2018-08-06T02:51:32.614Z,90.90
2018-08-06T02:54:02.535Z,91.20
2018-08-06T02:56:32.233Z,91.90
2018-08-06T02:59:02.156Z,91.10
2018-08-06T03:01:31.843Z,90.90
2018-08-06T03:04:03.293Z,90.50
2018-08-06T03:06:33.219Z,90.80
2018-08-06T03:09:03.081Z,92.30
2018-08-06T03:11:32.914Z,92.30
2018-08-06T03:14:02.660Z,92.10
2018-08-06T03:16:33.314Z,92.40
2018-08-06T03:19:03.116Z,94.20
2018-08-06T03:21:32.872Z,93.50
2018-08-06T03:24:13.702Z,93.60
2018-08-06T03:26:55.009Z,93.90
2018-08-06T03:29:46.772Z,93.30
2018-08-06T03:32:29.989Z,93.20
2018-08-06T03:37:53.032Z,92.10
2018-08-06T03:40:28.170Z,92.30
2018-08-06T03:45:45.416Z,92.20
2018-08-06T03:48:24.560Z,91.70
2018-08-06T03:51:02.882Z,92.10
2018-08-06T03:56:22.581Z,92.70
2018-08-06T03:59:00.467Z,92.80
2018-08-06T04:04:23.857Z,91.90
2018-08-06T04:07:02.350Z,92.20
2018-08-06T04:09:38.411Z,92.20
2018-08-06T04:12:12.404Z,92.60
2018-08-06T04:14:53.730Z,92.20
2018-08-06T04:17:32.032Z,92.20
2018-08-06T04:20:15.686Z,92.20
2018-08-06T04:22:52.508Z,92.30
2018-08-06T04:25:26.861Z,92.60
2018-08-06T04:28:04.699Z,92.20
2018-08-06T04:30:43.324Z,91.60
2018-08-06T04:33:23.762Z,91.40
2018-08-06T04:36:01.101Z,90.90
2018-08-06T04:38:59.469Z,91.00
2018-08-06T04:44:47.328Z,91.20
2018-08-06T04:50:29.484Z,91.20
2018-08-06T04:53:25.436Z,91.90
2018-08-06T04:56:17.292Z,90.80
2018-08-06T04:59:03.408Z,90.40
2018-08-06T05:01:55.862Z,90.40
2018-08-06T05:04:50.685Z,90.10
2018-08-06T05:10:36.044Z,90.50
2018-08-06T05:13:31.330Z,90.20
2018-08-06T05:16:20.809Z,90.80
2018-08-06T05:25:09.434Z,90.80
2018-08-06T05:28:00.586Z,90.20
2018-08-06T05:36:42.460Z,90.10
2018-08-06T05:39:28.276Z,90.10
2018-08-06T05:42:12.554Z,90.20
2018-08-06T05:45:03.464Z,88.30
2018-08-06T05:47:46.320Z,88.70
2018-08-06T05:50:30.828Z,87.20
2018-08-06T05:53:16.461Z,85.70
2018-08-06T05:56:07.783Z,85.20
2018-08-06T05:58:57.796Z,85.50
2018-08-06T06:01:43.250Z,85.30
2018-08-06T06:07:22.336Z,82.00
2018-08-06T06:12:59.905Z,80.90
2018-08-06T06:15:50.326Z,80.30
2018-08-06T06:18:37.689Z,79.50
2018-08-06T06:21:30.470Z,79.90
2018-08-06T06:24:22.083Z,79.10
2018-08-06T06:30:06.461Z,76.50
2018-08-06T06:41:40.154Z,77.90
2018-08-06T06:44:39.730Z,77.70
2018-08-06T06:47:33.560Z,79.60
2018-08-06T06:58:49.780Z,79.00
2018-08-06T07:01:37.869Z,77.90
2018-08-06T07:04:27.477Z,77.80
2018-08-06T07:07:27.394Z,77.20
2018-08-06T07:13:07.954Z,77.80
2018-08-06T07:16:01.478Z,78.70
2018-08-06T07:21:43.233Z,78.60
2018-08-06T07:24:29.346Z,78.80
2018-08-06T07:27:19.628Z,76.80
2018-08-06T07:30:05.178Z,75.70
2018-08-06T07:33:01.248Z,75.00
2018-08-06T07:38:39.350Z,75.90
2018-08-06T07:44:18.520Z,74.70
2018-08-06T07:47:11.284Z,75.10
2018-08-06T07:52:55.051Z,72.90
2018-08-06T07:55:51.446Z,70.50
2018-08-06T08:01:34.157Z,66.60
2018-08-06T08:04:20.812Z,65.50
2018-08-06T08:07:14.815Z,66.80
2018-08-06T08:10:02.927Z,67.50
2018-08-06T08:15:46.241Z,64.90
2018-08-06T08:18:37.275Z,62.90
2018-08-06T08:21:21.227Z,62.30
2018-08-06T08:29:47.205Z,60.80
2018-08-06T08:32:33.423Z,61.70
2018-08-06T08:38:11.333Z,64.10
2018-08-06T08:46:49.810Z,60.60
2018-08-06T08:52:32.481Z,60.60
2018-08-06T08:55:24.203Z,58.60
2018-08-06T08:58:14.568Z,58.70
2018-08-06T09:04:03.811Z,58.60
2018-08-06T09:06:59.022Z,59.40
2018-08-06T09:12:40.306Z,60.70
2018-08-06T09:15:30.621Z,59.00
2018-08-06T09:18:20.493Z,58.80
2018-08-06T09:21:15.420Z,59.20
2018-08-06T09:24:07.689Z,60.10
2018-08-06T09:29:47.928Z,57.50
2018-08-06T09:32:40.895Z,57.70
2018-08-06T09:35:37.144Z,57.50
2018-08-06T09:41:21.437Z,58.00
2018-08-06T09:47:13.316Z,57.90
2018-08-06T09:50:09.290Z,57.90
2018-08-06T09:53:07.299Z,57.00
2018-08-06T09:56:03.736Z,57.20
2018-08-06T09:58:51.445Z,56.10
2018-08-06T10:01:43.038Z,54.30
2018-08-06T10:04:45.099Z,54.40
2018-08-06T10:07:35.768Z,55.80
2018-08-06T10:10:28.276Z,56.90
2018-08-06T10:16:20.516Z,52.50
2018-08-06T10:19:15.406Z,54.70
2018-08-06T10:22:08.103Z,54.20
2018-08-06T10:24:56.991Z,54.70
2018-08-06T10:27:51.182Z,55.20
2018-08-06T10:30:41.517Z,57.30
2018-08-06T10:33:26.807Z,55.60
2018-08-06T10:42:04.304Z,53.60
2018-08-06T10:45:00.936Z,52.60
2018-08-06T10:53:33.751Z,53.80
2018-08-06T10:56:31.397Z,53.90
2018-08-06T11:02:19.457Z,52.90
2018-08-06T11:05:08.796Z,53.60
2018-08-06T11:08:00.995Z,51.90
2018-08-06T11:10:59.352Z,53.20
2018-08-06T11:13:55.720Z,52.20
2018-08-06T11:19:31.423Z,51.90
2018-08-06T11:22:21.868Z,53.60
2018-08-06T11:37:09.861Z,53.80
2018-08-06T11:40:00.640Z,52.60
2018-08-06T11:42:53.236Z,50.10
2018-08-06T11:51:25.660Z,50.10
2018-08-06T11:57:19.241Z,51.50
2018-08-06T12:00:12.752Z,53.60
2018-08-06T12:03:05.702Z,51.80
2018-08-06T12:08:42.839Z,51.60
2018-08-06T12:11:36.688Z,51.30
2018-08-06T12:14:22.103Z,51.00
2018-08-06T12:17:08.515Z,48.90
2018-08-06T12:19:50.830Z,49.20
2018-08-06T12:22:50.498Z,48.90
2018-08-06T12:25:49.015Z,50.00
2018-08-06T12:28:35.972Z,51.00
2018-08-06T12:31:16.980Z,50.90
2018-08-06T12:34:06.833Z,51.10
2018-08-06T12:39:45.078Z,49.70
2018-08-06T12:45:34.019Z,51.90
2018-08-06T12:51:18.849Z,51.00
2018-08-06T12:54:13.051Z,51.20
2018-08-06T12:57:01.323Z,50.40
2018-08-06T13:02:49.369Z,50.70
2018-08-06T13:05:35.724Z,51.60
2018-08-06T13:08:17.503Z,51.10
2018-08-06T13:11:03.446Z,50.30
2018-08-06T13:13:59.555Z,49.30
2018-08-06T13:16:48.440Z,50.10
2018-08-06T13:19:43.662Z,48.90
2018-08-06T13:22:40.328Z,48.30
2018-08-06T13:25:33.906Z,48.10
2018-08-06T13:28:17.026Z,48.10
2018-08-06T13:30:59.087Z,48.50
2018-08-06T13:33:38.610Z,48.40
2018-08-06T13:36:24.747Z,47.40
2018-08-06T13:39:04.265Z,47.60
2018-08-06T13:41:48.705Z,47.70
2018-08-06T13:44:35.916Z,46.00
2018-08-06T13:47:21.333Z,46.60
2018-08-06T13:50:03.513Z,46.80
2018-08-06T13:52:46.832Z,47.00
2018-08-06T13:55:38.097Z,46.40
2018-08-06T13:58:21.652Z,45.50
2018-08-06T14:01:07.859Z,47.70
2018-08-06T14:03:48.720Z,45.70
2018-08-06T14:06:37.843Z,45.00
2018-08-06T14:12:16.243Z,45.80
2018-08-06T14:14:58.591Z,46.40
2018-08-06T14:20:44.404Z,45.90
2018-08-06T14:23:25.020Z,46.10
2018-08-06T14:26:08.915Z,47.90
2018-08-06T14:28:55.388Z,45.20
2018-08-06T14:31:37.827Z,46.10
2018-08-06T14:34:27.384Z,44.90
2018-08-06T14:37:09.130Z,45.10
2018-08-06T14:39:55.006Z,45.50
2018-08-06T14:42:38.965Z,46.70
2018-08-06T14:45:26.001Z,46.60
2018-08-06T14:48:06.155Z,47.50
2018-08-06T14:50:53.909Z,45.30
2018-08-06T14:53:36.963Z,46.30
2018-08-06T14:56:26.059Z,44.70
2018-08-06T14:59:10.575Z,44.40
2018-08-06T15:01:53.717Z,43.30
2018-08-06T15:04:37.190Z,45.10
2018-08-06T15:07:16.682Z,44.40
2018-08-06T15:10:07.687Z,45.90
2018-08-06T15:15:52.244Z,45.20
2018-08-06T15:21:30.233Z,45.40
2018-08-06T15:27:10.686Z,45.00
2018-08-06T15:29:53.716Z,45.50
2018-08-06T15:32:35.437Z,44.30
2018-08-06T15:35:17.552Z,45.80
2018-08-06T15:38:09.330Z,45.70
2018-08-06T15:40:56.752Z,45.10
2018-08-06T15:43:44.096Z,44.10
2018-08-06T15:46:26.806Z,44.90
2018-08-06T15:49:10.925Z,44.60
2018-08-06T15:52:01.574Z,43.50
2018-08-06T16:00:24.327Z,45.60
2018-08-06T16:03:20.158Z,44.80
2018-08-06T16:06:12.958Z,45.90
2018-08-06T16:09:09.289Z,45.80
2018-08-06T16:14:40.327Z,44.70
2018-08-06T16:17:27.636Z,44.50
2018-08-06T16:20:11.434Z,44.60
2018-08-06T16:22:56.447Z,45.50
2018-08-06T16:25:44.711Z,44.50
2018-08-06T16:28:30.646Z,44.80
2018-08-06T16:31:17.150Z,45.10
2018-08-06T16:34:06.594Z,46.40
2018-08-06T16:36:53.006Z,45.70
2018-08-06T16:39:44.854Z,46.00
2018-08-06T16:42:25.358Z,45.60
2018-08-06T16:45:09.058Z,45.00
2018-08-06T16:48:00.738Z,46.80
2018-08-06T16:50:53.180Z,46.70
2018-08-06T16:53:42.609Z,46.50
2018-08-06T16:56:29.465Z,46.00
2018-08-06T16:59:21.757Z,46.80
2018-08-06T17:02:05.947Z,47.20
2018-08-06T17:04:45.189Z,46.10
2018-08-06T17:07:33.755Z,43.60
2018-08-06T17:10:20.277Z,43.90
2018-08-06T17:13:05.265Z,45.00
2018-08-06T17:15:53.948Z,45.20
2018-08-06T17:18:42.633Z,46.70
2018-08-06T17:24:19.789Z,48.60
2018-08-06T17:30:10.339Z,50.00
2018-08-06T17:32:55.303Z,50.10
2018-08-06T17:35:41.820Z,50.60
2018-08-06T17:38:27.483Z,50.50
2018-08-06T17:47:00.196Z,52.20
2018-08-06T17:49:43.215Z,51.70
2018-08-06T17:52:34.119Z,53.10
2018-08-06T18:01:17.069Z,53.10
2018-08-06T18:15:37.790Z,55.30
2018-08-06T18:21:17.475Z,55.90
2018-08-06T18:24:07.394Z,57.30
2018-08-06T18:26:54.227Z,57.10
2018-08-06T18:29:45.328Z,57.40
2018-08-06T18:32:29.265Z,58.00
2018-08-06T18:35:19.454Z,58.30
2018-08-06T18:38:11.117Z,58.50
2018-08-06T18:40:56.604Z,59.70
2018-08-06T18:43:37.832Z,59.70
2018-08-06T18:46:18.467Z,59.70
2018-08-06T18:49:03.068Z,59.80
2018-08-06T18:51:41.415Z,60.50
2018-08-06T18:54:25.437Z,61.10
2018-08-06T18:57:11.456Z,62.70
2018-08-06T18:59:48.177Z,62.70
2018-08-06T19:02:28.678Z,64.20
2018-08-06T19:05:05.268Z,64.40
2018-08-06T19:07:49.372Z,63.50
2018-08-06T19:10:34.523Z,64.10
2018-08-06T19:13:18.626Z,63.90
2018-08-06T19:16:02.616Z,63.50
2018-08-06T19:18:42.834Z,64.60
2018-08-06T19:21:19.073Z,65.10
2018-08-06T19:24:04.241Z,65.60
2018-08-06T19:26:45.340Z,65.40
2018-08-06T19:29:25.393Z,66.30
2018-08-06T19:32:03.721Z,65.80
2018-08-06T19:34:55.635Z,66.60
2018-08-06T19:37:41.323Z,66.30
2018-08-06T19:40:30.479Z,67.10
2018-08-06T19:43:13.279Z,68.90
2018-08-06T19:45:48.701Z,68.90
2018-08-06T19:48:27.526Z,69.20
2018-08-06T19:51:09.386Z,68.50
2018-08-06T19:53:55.889Z,68.80
2018-08-06T19:59:08.872Z,69.10
2018-08-06T20:01:50.463Z,69.60
2018-08-06T20:04:26.802Z,70.00
2018-08-06T20:09:45.169Z,71.90
2018-08-06T20:12:27.899Z,72.90
2018-08-06T20:15:08.870Z,73.10
2018-08-06T20:17:49.069Z,72.50
2018-08-06T20:20:24.709Z,72.50
2018-08-06T20:23:07.704Z,72.70
2018-08-06T20:25:48.770Z,72.40
2018-08-06T20:28:31.114Z,72.70
2018-08-06T20:31:08.231Z,72.70
2018-08-06T20:33:53.045Z,72.60
2018-08-06T20:36:31.226Z,72.60
2018-08-06T20:39:11.286Z,72.10
2018-08-06T20:44:25.811Z,72.90
2018-08-06T20:47:05.193Z,72.60
2018-08-06T20:49:46.797Z,73.10
2018-08-06T20:52:25.665Z,73.90
2018-08-06T20:55:05.737Z,74.20
2018-08-06T20:57:51.483Z,75.90
2018-08-06T21:00:30.407Z,76.50
2018-08-06T21:05:46.219Z,74.90
2018-08-06T21:11:14.718Z,75.10
2018-08-06T21:13:52.535Z,75.20
2018-08-06T21:16:31.931Z,76.00
2018-08-06T21:19:09.304Z,77.70
2018-08-06T21:29:56.841Z,77.30
2018-08-06T21:32:39.364Z,77.50
2018-08-06T21:35:27.416Z,77.60
2018-08-06T21:38:10.263Z,77.20
2018-08-06T21:40:53.235Z,76.70
2018-08-06T21:43:37.539Z,77.00
2018-08-06T21:46:19.800Z,78.80
2018-08-06T21:49:01.136Z,77.50
2018-08-06T21:51:37.386Z,77.80
2018-08-06T21:54:16.523Z,77.30
2018-08-06T21:59:39.146Z,77.80
2018-08-06T22:02:14.179Z,77.80
2018-08-06T22:04:55.512Z,79.30
2018-08-06T22:07:33.798Z,79.10
2018-08-06T22:10:13.052Z,79.00
2018-08-06T22:12:53.229Z,79.00
2018-08-06T22:15:31.499Z,79.20
2018-08-06T22:18:19.809Z,78.60
2018-08-06T22:21:03.919Z,78.70
2018-08-06T22:23:41.390Z,78.70
2018-08-06T22:26:18.360Z,79.50
2018-08-06T22:28:55.477Z,81.50
2018-08-06T22:34:16.790Z,80.10
2018-08-06T22:36:58.224Z,81.50
2018-08-06T22:39:40.346Z,83.10
2018-08-06T22:42:25.670Z,82.50
2018-08-06T22:45:04.405Z,81.90
2018-08-06T22:47:44.982Z,81.70
2018-08-06T22:50:23.224Z,81.60
2018-08-06T22:55:54.338Z,82.20
2018-08-06T23:01:11.457Z,82.00
2018-08-06T23:03:50.440Z,81.90
2018-08-06T23:06:26.372Z,81.50
2018-08-06T23:09:09.190Z,82.40
2018-08-06T23:11:46.526Z,83.40
2018-08-06T23:14:22.746Z,82.60
2018-08-06T23:17:02.273Z,82.70
2018-08-06T23:19:38.274Z,81.70
2018-08-06T23:22:20.337Z,82.30
2018-08-06T23:24:55.304Z,82.30
2018-08-06T23:27:39.825Z,82.30
2018-08-06T23:30:22.240Z,83.00
2018-08-06T23:33:04.608Z,82.40
2018-08-06T23:35:43.616Z,82.20
2018-08-06T23:38:26.603Z,82.70
2018-08-06T23:41:07.441Z,82.90
2018-08-06T23:46:28.492Z,82.90
2018-08-06T23:49:06.600Z,82.50
2018-08-06T23:51:49.848Z,82.30
2018-08-06T23:54:29.379Z,82.70
2018-08-06T23:57:09.553Z,83.00
2018-08-06T23:59:53.848Z,83.00
